Terminal Aerodrome Forecast
Issued by NWS

Home | Current Version | Previous Version | Text Only | Print | Product List | Glossary On
Versions: 1 2 3 4 5 6 7 8 9 10 11 12 13 14
000
FTUS46 KOTX 190520
TAFPUW
TAF
KPUW 190520Z 1906/2006 09006KT P6SM FEW060 FEW250
     FM190800 11007KT P6SM SCT250
     FM191300 10014KT P6SM SCT100 BKN200
     FM192300 24015G25KT P6SM SCT080 BKN100 BKN200
     FM200300 24020G30KT P6SM VCSH BKN080 BKN100 BKN200=

USA.gov is the U.S. government's official web portal to all federal, state and local government web resources and services.